createdAt,value
2022-10-05T00:01:27.038Z,18.76
2022-10-05T00:06:30.349Z,18.79
2022-10-05T00:11:32.237Z,18.79
2022-10-05T00:16:35.082Z,18.43
2022-10-05T00:21:38.177Z,18.60
2022-10-05T00:26:40.331Z,18.55
2022-10-05T00:31:42.719Z,18.48
2022-10-05T00:36:45.505Z,18.43
2022-10-05T00:42:34.462Z,18.36
2022-10-05T00:48:04.391Z,18.50
2022-10-05T00:53:24.212Z,18.47
2022-10-05T00:58:49.265Z,18.42
2022-10-05T01:04:00.800Z,18.22
2022-10-05T01:09:20.715Z,18.39
2022-10-05T01:14:31.973Z,18.12
2022-10-05T01:19:58.934Z,18.35
2022-10-05T01:25:18.869Z,18.32
2022-10-05T01:30:22.344Z,18.26
2022-10-05T01:35:39.445Z,18.28
2022-10-05T01:40:42.462Z,18.12
2022-10-05T01:46:21.916Z,18.04
2022-10-05T01:51:48.900Z,17.94
2022-10-05T01:57:08.981Z,17.87
2022-10-05T02:02:17.206Z,17.78
2022-10-05T02:07:24.973Z,17.69
2022-10-05T02:12:32.451Z,17.37
2022-10-05T02:17:40.136Z,17.58
2022-10-05T02:23:04.366Z,17.53
2022-10-05T02:28:17.006Z,17.21
2022-10-05T02:33:30.853Z,17.45
2022-10-05T02:38:56.443Z,17.43
2022-10-05T02:44:26.799Z,17.35
2022-10-05T02:49:43.772Z,17.30
2022-10-05T02:55:04.219Z,17.32
2022-10-05T03:00:10.592Z,17.32
2022-10-05T03:05:51.486Z,17.31
2022-10-05T03:11:03.967Z,17.25
2022-10-05T03:16:46.729Z,17.24
2022-10-05T03:22:02.711Z,17.10
2022-10-05T03:27:18.967Z,16.88
2022-10-05T03:32:37.119Z,16.97
2022-10-05T03:37:48.133Z,16.93
2022-10-05T03:43:24.779Z,16.89
2022-10-05T03:48:45.170Z,16.72
2022-10-05T03:53:55.097Z,16.73
2022-10-05T03:59:04.376Z,16.70
2022-10-05T04:04:16.823Z,16.48
2022-10-05T04:09:24.785Z,16.53
2022-10-05T04:14:32.701Z,16.39
2022-10-05T04:19:39.631Z,16.41
2022-10-05T04:24:54.064Z,16.24
2022-10-05T04:30:01.974Z,16.38
2022-10-05T04:35:14.558Z,16.37
2022-10-05T04:40:42.789Z,16.35
2022-10-05T04:46:01.478Z,16.37
2022-10-05T04:51:14.260Z,16.34
2022-10-05T04:56:20.799Z,16.26
2022-10-05T05:01:32.424Z,16.26
2022-10-05T05:06:51.801Z,16.27
2022-10-05T05:12:04.190Z,16.03
2022-10-05T05:17:13.287Z,16.18
2022-10-05T05:22:32.032Z,16.18
2022-10-05T05:27:42.627Z,16.16
2022-10-05T05:33:31.400Z,16.06
2022-10-05T05:38:47.636Z,16.01
2022-10-05T05:43:59.005Z,15.97
2022-10-05T05:49:16.615Z,16.15
2022-10-05T05:54:27.583Z,16.12
2022-10-05T05:59:49.722Z,15.98
2022-10-05T06:04:57.375Z,15.88
2022-10-05T06:10:16.925Z,15.85
2022-10-05T06:15:35.080Z,15.50
2022-10-05T06:20:42.916Z,15.66
2022-10-05T06:26:41.565Z,15.66
2022-10-05T06:31:49.904Z,15.68
2022-10-05T06:36:58.798Z,15.67
2022-10-05T06:42:40.694Z,15.77
2022-10-05T06:48:33.818Z,15.80
2022-10-05T06:54:15.478Z,15.82
2022-10-05T06:59:45.792Z,15.93
2022-10-05T07:05:19.297Z,15.95
2022-10-05T07:10:34.037Z,15.96
2022-10-05T07:15:45.427Z,16.07
2022-10-05T07:20:53.649Z,16.08
2022-10-05T07:26:07.624Z,15.97
2022-10-05T07:31:36.840Z,16.26
2022-10-05T07:37:12.235Z,16.23
2022-10-05T07:42:39.956Z,16.45
2022-10-05T07:47:53.551Z,16.58
2022-10-05T07:52:59.552Z,16.71
2022-10-05T07:58:13.205Z,16.84
2022-10-05T08:03:38.897Z,16.98
2022-10-05T08:08:59.763Z,17.19
2022-10-05T08:14:17.521Z,17.40
2022-10-05T08:19:35.852Z,17.42
2022-10-05T08:24:49.870Z,17.76
2022-10-05T08:30:10.799Z,18.04
2022-10-05T08:35:48.802Z,18.34
2022-10-05T08:41:19.131Z,18.68
2022-10-05T08:46:30.406Z,19.03
2022-10-05T08:51:35.437Z,19.39
2022-10-05T08:56:55.462Z,20.17
2022-10-05T09:02:10.655Z,21.49
2022-10-05T09:07:39.421Z,22.28
2022-10-05T09:12:59.298Z,23.09
2022-10-05T09:18:43.672Z,23.45
2022-10-05T09:23:50.030Z,23.87
2022-10-05T09:28:57.819Z,24.42
2022-10-05T09:34:39.873Z,24.46
2022-10-05T09:40:03.698Z,24.76
2022-10-05T09:45:44.531Z,24.97
2022-10-05T09:50:50.238Z,25.21
2022-10-05T09:56:09.266Z,25.38
2022-10-05T10:01:34.302Z,25.22
2022-10-05T10:06:59.579Z,25.72
2022-10-05T10:12:24.706Z,25.64
2022-10-05T10:17:44.371Z,25.70
2022-10-05T10:23:04.386Z,26.23
2022-10-05T10:28:25.949Z,26.42
2022-10-05T10:33:55.545Z,26.38
2022-10-05T10:39:19.457Z,26.84
2022-10-05T10:44:42.130Z,26.70
2022-10-05T10:50:01.246Z,26.86
2022-10-05T10:55:29.209Z,27.07
2022-10-05T11:01:05.692Z,27.17
2022-10-05T11:06:35.470Z,26.99
2022-10-05T11:11:57.790Z,26.86
2022-10-05T11:17:09.256Z,26.52
2022-10-05T11:22:44.397Z,25.81
2022-10-05T11:28:01.568Z,25.82
2022-10-05T11:33:25.378Z,25.55
2022-10-05T11:39:06.983Z,25.24
2022-10-05T11:44:27.775Z,25.45
2022-10-05T11:49:37.474Z,25.26
2022-10-05T11:55:11.285Z,25.25
2022-10-05T12:00:21.593Z,24.98
2022-10-05T12:05:41.743Z,25.23
2022-10-05T12:11:16.369Z,25.14
2022-10-05T12:16:22.880Z,25.05
2022-10-05T12:21:49.705Z,25.05
2022-10-05T12:27:19.080Z,25.17
2022-10-05T12:32:21.920Z,25.23
2022-10-05T12:37:43.087Z,25.19
2022-10-05T12:42:55.239Z,25.08
2022-10-05T12:48:19.819Z,25.15
2022-10-05T12:53:33.965Z,25.22
2022-10-05T12:59:04.986Z,25.26
2022-10-05T13:04:23.078Z,25.24
2022-10-05T13:09:42.747Z,25.28
2022-10-05T13:15:05.982Z,25.25
2022-10-05T13:20:35.557Z,25.40
2022-10-05T13:26:04.242Z,25.36
2022-10-05T13:31:30.805Z,25.49
2022-10-05T13:36:42.591Z,25.54
2022-10-05T13:41:55.905Z,25.48
2022-10-05T13:47:12.675Z,25.53
2022-10-05T13:52:31.242Z,25.54
2022-10-05T13:57:47.296Z,25.56
2022-10-05T14:02:52.038Z,25.60
2022-10-05T14:08:04.317Z,25.77
2022-10-05T14:13:29.517Z,25.86
2022-10-05T14:18:34.379Z,25.90
2022-10-05T14:23:36.504Z,25.76
2022-10-05T14:28:39.734Z,25.60
2022-10-05T14:33:42.863Z,26.04
2022-10-05T14:38:58.058Z,26.19
2022-10-05T14:44:05.798Z,25.99
2022-10-05T14:49:24.707Z,26.15
2022-10-05T14:54:44.459Z,26.03
2022-10-05T15:00:00.540Z,26.02
2022-10-05T15:05:15.503Z,26.15
2022-10-05T15:10:41.278Z,26.02
2022-10-05T15:15:57.305Z,26.03
2022-10-05T15:21:32.229Z,26.05
2022-10-05T15:26:40.862Z,25.96
2022-10-05T15:32:26.498Z,26.05
2022-10-05T15:37:43.611Z,25.95
2022-10-05T15:42:45.807Z,26.12
2022-10-05T15:47:53.765Z,25.87
2022-10-05T15:53:08.950Z,25.90
2022-10-05T15:58:32.165Z,25.70
2022-10-05T16:03:46.312Z,25.88
2022-10-05T16:08:50.904Z,26.02
2022-10-05T16:14:03.598Z,25.90
2022-10-05T16:19:30.116Z,25.83
2022-10-05T16:25:25.163Z,25.70
2022-10-05T16:30:45.835Z,25.74
2022-10-05T16:35:59.853Z,25.65
2022-10-05T16:41:17.353Z,25.62
2022-10-05T16:46:28.330Z,25.34
2022-10-05T16:51:42.932Z,25.11
2022-10-05T16:56:58.052Z,25.27
2022-10-05T17:02:31.341Z,25.13
2022-10-05T17:07:56.553Z,24.82
2022-10-05T17:13:20.026Z,24.80
2022-10-05T17:18:54.422Z,24.62
2022-10-05T17:24:03.733Z,24.51
2022-10-05T17:29:11.463Z,24.38
2022-10-05T17:34:18.834Z,24.24
2022-10-05T17:39:38.186Z,24.09
2022-10-05T17:45:22.297Z,23.79
2022-10-05T17:50:59.833Z,23.83
2022-10-05T17:56:04.638Z,23.52
2022-10-05T18:01:20.318Z,23.51
2022-10-05T18:06:27.562Z,23.45
2022-10-05T18:11:42.542Z,23.35
2022-10-05T18:17:11.888Z,23.19
2022-10-05T18:22:17.880Z,23.08
2022-10-05T18:27:55.830Z,22.99
2022-10-05T18:33:35.477Z,22.89
2022-10-05T18:38:40.595Z,22.76
2022-10-05T18:43:49.133Z,22.67
2022-10-05T18:48:56.915Z,22.46
2022-10-05T18:54:26.394Z,22.55
2022-10-05T18:59:57.556Z,22.50
2022-10-05T19:10:57.839Z,22.27
2022-10-05T19:16:03.441Z,22.24
2022-10-05T19:21:18.568Z,22.13
2022-10-05T19:26:37.809Z,22.03
2022-10-05T19:31:55.611Z,21.72
2022-10-05T19:37:05.027Z,21.75
2022-10-05T19:42:31.759Z,21.76
2022-10-05T19:47:40.309Z,21.71
2022-10-05T19:52:49.712Z,21.61
2022-10-05T19:58:02.357Z,21.63
2022-10-05T20:03:18.162Z,21.66
2022-10-05T20:08:22.398Z,21.58
2022-10-05T20:13:24.492Z,21.47
2022-10-05T20:19:03.276Z,21.52
2022-10-05T20:24:10.383Z,21.20
2022-10-05T20:29:12.526Z,21.35
2022-10-05T20:34:14.682Z,21.10
2022-10-05T20:39:22.445Z,21.11
2022-10-05T20:44:26.785Z,21.10
2022-10-05T20:49:31.496Z,20.94
2022-10-05T20:54:33.873Z,20.90
2022-10-05T20:59:39.438Z,20.85
2022-10-05T21:04:49.317Z,20.80
2022-10-05T21:09:51.767Z,20.78
2022-10-05T21:14:54.104Z,20.68
2022-10-05T21:19:56.106Z,20.56
2022-10-05T21:24:58.555Z,20.57
2022-10-05T21:30:01.000Z,20.59
2022-10-05T21:35:04.957Z,20.53
2022-10-05T21:40:17.567Z,20.56
2022-10-05T21:45:20.877Z,20.52
2022-10-05T21:50:23.381Z,20.42
2022-10-05T21:55:25.247Z,20.50
2022-10-05T22:00:27.400Z,20.11
2022-10-05T22:05:32.355Z,19.38
2022-10-05T22:10:35.191Z,19.45
2022-10-05T22:15:40.548Z,19.49
2022-10-05T22:20:42.564Z,19.12
2022-10-05T22:25:45.715Z,19.54
2022-10-05T22:31:00.676Z,19.63
2022-10-05T22:36:06.762Z,19.57
2022-10-05T22:41:12.524Z,19.66
2022-10-05T22:46:22.546Z,19.61
2022-10-05T22:51:27.397Z,19.44
2022-10-05T22:56:38.850Z,19.52
2022-10-05T23:01:44.261Z,19.21
2022-10-05T23:06:50.051Z,19.49
2022-10-05T23:11:58.030Z,19.45
2022-10-05T23:17:06.193Z,19.40
2022-10-05T23:22:09.668Z,19.35
2022-10-05T23:27:13.486Z,19.31
2022-10-05T23:32:15.747Z,19.33
2022-10-05T23:37:20.695Z,19.22
2022-10-05T23:42:36.953Z,19.12
2022-10-05T23:47:39.766Z,19.07
2022-10-05T23:52:44.249Z,19.01
2022-10-05T23:57:46.233Z,18.91
